createdAt,value
2022-07-31T00:01:19.003Z,8.50
2022-07-31T00:03:47.135Z,10.30
2022-07-31T00:06:15.250Z,7.30
2022-07-31T00:08:43.201Z,12.80
2022-07-31T00:11:12.528Z,9.82
2022-07-31T00:13:58.073Z,10.30
2022-07-31T00:16:26.717Z,8.88
2022-07-31T00:18:55.224Z,16.58
2022-07-31T00:21:23.159Z,9.15
2022-07-31T00:23:51.172Z,8.48
2022-07-31T00:26:20.613Z,6.65
2022-07-31T00:28:48.762Z,14.00
2022-07-31T00:31:18.370Z,7.50
2022-07-31T00:33:46.758Z,10.77
2022-07-31T00:36:14.789Z,8.20
2022-07-31T00:38:42.997Z,7.78
2022-07-31T00:41:11.293Z,7.95
2022-07-31T00:43:40.811Z,10.15
2022-07-31T00:46:14.259Z,11.48
2022-07-31T00:48:42.752Z,8.02
2022-07-31T00:51:10.753Z,7.75
2022-07-31T00:53:39.069Z,15.98
2022-07-31T00:56:07.324Z,10.55
2022-07-31T00:58:35.337Z,7.65
2022-07-31T01:01:04.695Z,8.57
2022-07-31T01:03:32.762Z,7.45
2022-07-31T01:06:00.824Z,8.88
2022-07-31T01:08:28.844Z,12.82
2022-07-31T01:11:00.461Z,9.63
2022-07-31T01:13:32.933Z,15.30
2022-07-31T01:16:02.449Z,10.15
2022-07-31T01:18:34.461Z,12.32
2022-07-31T01:21:05.830Z,11.60
2022-07-31T01:23:54.340Z,9.95
2022-07-31T01:26:35.844Z,16.65
2022-07-31T01:29:15.225Z,7.85
2022-07-31T01:31:45.852Z,9.98
2022-07-31T01:34:21.330Z,11.30
2022-07-31T01:36:55.029Z,9.18
2022-07-31T01:39:23.375Z,8.10
2022-07-31T01:41:52.130Z,6.68
2022-07-31T01:44:21.730Z,6.05
2022-07-31T01:46:50.163Z,9.77
2022-07-31T01:49:19.997Z,12.20
2022-07-31T01:51:49.514Z,7.35
2022-07-31T01:54:19.684Z,8.90
2022-07-31T01:56:50.219Z,11.57
2022-07-31T01:59:22.666Z,6.68
2022-07-31T02:01:51.495Z,7.63
2022-07-31T02:04:21.090Z,7.28
2022-07-31T02:06:50.285Z,8.40
2022-07-31T02:09:19.380Z,8.80
2022-07-31T02:11:53.521Z,8.00
2022-07-31T02:14:26.007Z,11.50
2022-07-31T02:17:01.737Z,7.30
2022-07-31T02:19:32.038Z,7.18
2022-07-31T02:22:00.740Z,5.38
2022-07-31T02:24:28.917Z,10.15
2022-07-31T02:26:57.695Z,5.70
2022-07-31T02:29:27.103Z,8.40
2022-07-31T02:32:09.866Z,9.35
2022-07-31T02:34:38.669Z,8.23
2022-07-31T02:37:07.137Z,9.18
2022-07-31T02:39:36.010Z,9.15
2022-07-31T02:42:07.614Z,7.90
2022-07-31T02:44:39.770Z,8.25
2022-07-31T02:47:07.992Z,8.68
2022-07-31T02:49:35.957Z,5.90
2022-07-31T02:52:06.317Z,10.73
2022-07-31T02:54:35.779Z,10.57
2022-07-31T02:57:04.758Z,9.93
2022-07-31T02:59:33.031Z,7.82
2022-07-31T03:02:03.485Z,11.60
2022-07-31T03:04:31.733Z,9.48
2022-07-31T03:07:00.596Z,10.63
2022-07-31T03:09:30.595Z,7.75
2022-07-31T03:11:58.824Z,10.43
2022-07-31T03:14:34.286Z,11.40
2022-07-31T03:17:04.452Z,12.90
2022-07-31T03:19:33.368Z,11.68
2022-07-31T03:22:01.800Z,13.18
2022-07-31T03:24:30.600Z,14.65
2022-07-31T03:27:00.135Z,6.47
2022-07-31T03:29:42.958Z,12.77
2022-07-31T03:32:13.210Z,12.15
2022-07-31T03:34:41.258Z,11.68
2022-07-31T03:37:10.221Z,14.82
2022-07-31T03:39:38.345Z,12.48
2022-07-31T03:42:07.126Z,10.38
2022-07-31T03:44:42.189Z,12.23
2022-07-31T03:47:10.357Z,15.32
2022-07-31T03:49:40.205Z,13.82
2022-07-31T03:52:12.029Z,13.10
2022-07-31T03:54:40.663Z,13.55
2022-07-31T03:57:09.473Z,8.38
2022-07-31T03:59:40.551Z,12.68
2022-07-31T04:02:18.748Z,16.60
2022-07-31T04:04:48.436Z,11.02
2022-07-31T04:07:17.168Z,9.75
2022-07-31T04:09:45.167Z,11.07
2022-07-31T04:12:13.138Z,11.73
2022-07-31T04:14:41.249Z,10.90
2022-07-31T04:17:09.511Z,11.82
2022-07-31T04:19:37.680Z,10.43
2022-07-31T04:22:07.542Z,9.52
2022-07-31T04:24:35.844Z,7.38
2022-07-31T04:27:07.038Z,13.05
2022-07-31T04:29:37.456Z,11.43
2022-07-31T04:32:06.334Z,7.28
2022-07-31T04:34:34.485Z,17.13
2022-07-31T04:37:03.089Z,12.70
2022-07-31T04:39:32.516Z,10.68
2022-07-31T04:42:00.761Z,11.85
2022-07-31T04:44:29.082Z,14.70
2022-07-31T04:47:00.500Z,15.88
2022-07-31T04:49:28.630Z,14.65
2022-07-31T04:51:57.356Z,10.75
2022-07-31T04:54:25.393Z,14.23
2022-07-31T04:56:54.737Z,13.18
2022-07-31T04:59:23.888Z,10.85
2022-07-31T05:02:11.956Z,11.80
2022-07-31T05:04:40.436Z,9.57
2022-07-31T05:07:08.407Z,12.55
2022-07-31T05:09:36.916Z,12.00
2022-07-31T05:12:08.223Z,13.77
2022-07-31T05:14:36.249Z,12.48
2022-07-31T05:17:04.295Z,16.48
2022-07-31T05:19:32.328Z,13.00
2022-07-31T05:22:03.571Z,15.02
2022-07-31T05:24:33.502Z,13.02
2022-07-31T05:27:02.623Z,12.07
2022-07-31T05:29:32.245Z,11.88
2022-07-31T05:32:09.892Z,14.32
2022-07-31T05:34:37.953Z,15.32
2022-07-31T05:37:06.235Z,12.50
2022-07-31T05:39:34.241Z,15.40
2022-07-31T05:42:02.636Z,12.25
2022-07-31T05:44:32.140Z,13.43
2022-07-31T05:49:28.963Z,13.30
2022-07-31T05:51:57.104Z,10.38
2022-07-31T05:54:25.096Z,14.27
2022-07-31T05:56:53.065Z,10.13
2022-07-31T05:59:21.183Z,12.70
2022-07-31T06:01:53.305Z,10.50
2022-07-31T06:04:21.508Z,11.85
2022-07-31T06:06:49.581Z,10.98
2022-07-31T06:09:19.872Z,14.38
2022-07-31T06:11:48.182Z,15.88
2022-07-31T06:14:16.162Z,9.93
2022-07-31T06:16:45.496Z,10.63
2022-07-31T06:19:16.571Z,10.55
2022-07-31T06:21:44.501Z,10.73
2022-07-31T06:24:12.612Z,13.00
2022-07-31T06:26:43.907Z,11.05
2022-07-31T06:29:12.570Z,12.57
2022-07-31T06:31:42.784Z,13.18
2022-07-31T06:34:10.862Z,12.40
2022-07-31T06:36:41.158Z,12.90
2022-07-31T06:39:09.275Z,13.68
2022-07-31T06:41:47.319Z,13.35
2022-07-31T06:44:15.653Z,15.70
2022-07-31T06:46:48.976Z,13.75
2022-07-31T06:49:17.601Z,14.88
2022-07-31T06:51:47.285Z,16.35
2022-07-31T06:54:15.739Z,21.20
2022-07-31T06:56:43.783Z,19.35
2022-07-31T06:59:14.694Z,14.60
2022-07-31T07:02:05.717Z,19.35
2022-07-31T07:04:57.426Z,19.00
2022-07-31T07:07:23.586Z,16.08
2022-07-31T07:09:51.725Z,21.67
2022-07-31T07:12:20.381Z,17.45
2022-07-31T07:14:50.487Z,20.88
2022-07-31T07:17:18.503Z,25.65
2022-07-31T07:19:46.726Z,25.75
2022-07-31T07:22:29.961Z,26.83
2022-07-31T07:25:00.985Z,18.35
2022-07-31T07:27:30.297Z,27.20
2022-07-31T07:29:58.474Z,22.92
2022-07-31T07:32:26.901Z,25.17
2022-07-31T07:34:59.806Z,25.75
2022-07-31T07:37:30.862Z,26.27
2022-07-31T07:40:08.474Z,28.77
2022-07-31T07:42:36.558Z,26.75
2022-07-31T07:45:08.371Z,30.95
2022-07-31T07:48:05.069Z,30.73
2022-07-31T07:50:26.706Z,31.98
2022-07-31T07:52:58.780Z,32.65
2022-07-31T07:55:27.403Z,32.45
2022-07-31T07:57:55.491Z,31.42
2022-07-31T08:00:24.592Z,31.70
2022-07-31T08:03:02.838Z,34.85
2022-07-31T08:05:42.744Z,37.35
2022-07-31T08:08:12.240Z,44.42
2022-07-31T08:10:43.183Z,47.60
2022-07-31T08:13:11.378Z,47.40
2022-07-31T08:15:39.544Z,43.83
2022-07-31T08:18:08.413Z,53.75
2022-07-31T08:20:38.838Z,50.70
2022-07-31T08:23:07.035Z,53.85
2022-07-31T08:25:36.441Z,57.10
2022-07-31T08:28:05.518Z,50.50
2022-07-31T08:30:33.996Z,50.97
2022-07-31T08:33:02.069Z,54.00
2022-07-31T08:35:30.161Z,60.05
2022-07-31T08:38:03.918Z,55.30
2022-07-31T08:40:42.981Z,55.20
2022-07-31T08:43:31.150Z,54.97
2022-07-31T08:46:03.159Z,57.92
2022-07-31T08:48:33.125Z,54.47
2022-07-31T08:51:03.323Z,52.13
2022-07-31T08:53:33.037Z,49.00
2022-07-31T08:56:02.544Z,48.90
2022-07-31T08:58:30.630Z,51.78
2022-07-31T09:00:59.041Z,47.08
2022-07-31T09:03:27.188Z,47.88
2022-07-31T09:05:55.250Z,41.05
2022-07-31T09:08:25.042Z,39.30
2022-07-31T09:11:06.545Z,50.08
2022-07-31T09:13:35.435Z,38.95
2022-07-31T09:16:04.295Z,40.97
2022-07-31T09:18:32.520Z,41.20
2022-07-31T09:21:03.856Z,45.47
2022-07-31T09:23:32.355Z,45.45
2022-07-31T09:26:06.052Z,48.03
2022-07-31T09:28:37.620Z,39.40
2022-07-31T09:31:07.217Z,44.08
2022-07-31T09:33:41.260Z,47.85
2022-07-31T09:36:13.463Z,45.25
2022-07-31T09:38:43.314Z,49.10
2022-07-31T09:41:55.438Z,46.33
2022-07-31T09:44:10.276Z,49.08
2022-07-31T09:46:45.651Z,49.92
2022-07-31T09:49:13.885Z,52.42
2022-07-31T09:51:49.307Z,48.10
2022-07-31T09:56:51.176Z,44.65
2022-07-31T09:59:20.623Z,41.97
2022-07-31T10:01:49.930Z,45.17
2022-07-31T10:04:18.676Z,41.45
2022-07-31T10:06:48.702Z,38.50
2022-07-31T10:09:17.247Z,38.85
2022-07-31T10:11:46.041Z,46.42
2022-07-31T10:14:20.126Z,37.95
2022-07-31T10:16:51.557Z,40.05
2022-07-31T10:19:20.568Z,43.35
2022-07-31T10:21:54.770Z,41.15
2022-07-31T10:24:28.091Z,40.38
2022-07-31T10:27:01.198Z,47.38
2022-07-31T10:29:32.318Z,39.75
2022-07-31T10:32:05.058Z,44.78
2022-07-31T10:34:37.428Z,42.58
2022-07-31T10:37:11.440Z,38.53
2022-07-31T10:39:45.491Z,42.70
2022-07-31T10:42:21.139Z,42.50
2022-07-31T10:44:54.016Z,42.28
2022-07-31T10:47:23.698Z,43.15
2022-07-31T10:49:51.862Z,47.33
2022-07-31T10:52:28.550Z,46.78
2022-07-31T10:54:58.269Z,42.00
2022-07-31T10:57:28.141Z,51.47
2022-07-31T10:59:56.136Z,39.60
2022-07-31T11:02:32.998Z,43.75
2022-07-31T11:05:12.132Z,43.08
2022-07-31T11:07:40.758Z,40.13
2022-07-31T11:10:19.380Z,42.08
2022-07-31T11:12:48.180Z,45.50
2022-07-31T11:15:23.356Z,45.08
2022-07-31T11:18:21.302Z,37.13
2022-07-31T11:20:46.586Z,40.55
2022-07-31T11:23:16.856Z,38.08
2022-07-31T11:25:46.681Z,38.08
2022-07-31T11:28:18.972Z,45.22
2022-07-31T11:30:54.554Z,46.10
2022-07-31T11:33:41.724Z,52.20
2022-07-31T11:36:13.281Z,56.47
2022-07-31T11:38:44.748Z,63.88
2022-07-31T11:41:15.385Z,69.57
2022-07-31T11:43:48.150Z,65.53
2022-07-31T11:46:21.346Z,71.85
2022-07-31T11:48:50.709Z,49.90
2022-07-31T11:51:19.552Z,48.15
2022-07-31T11:53:51.113Z,70.85
2022-07-31T11:56:26.240Z,82.38
2022-07-31T11:58:56.020Z,85.50
2022-07-31T12:01:27.132Z,114.95
2022-07-31T12:03:57.699Z,105.68
2022-07-31T12:06:36.875Z,207.48
2022-07-31T12:09:05.538Z,204.40
2022-07-31T12:11:34.293Z,127.53
2022-07-31T12:14:02.289Z,67.65
2022-07-31T12:16:41.523Z,87.65
2022-07-31T12:19:10.898Z,154.05
2022-07-31T12:21:40.491Z,47.80
2022-07-31T12:24:12.455Z,81.72
2022-07-31T12:26:40.440Z,43.67
2022-07-31T12:29:09.631Z,61.90
2022-07-31T12:31:45.936Z,70.90
2022-07-31T12:34:25.951Z,69.22
2022-07-31T12:36:59.417Z,37.88
2022-07-31T12:39:54.084Z,39.33
2022-07-31T12:42:22.195Z,62.92
2022-07-31T12:45:01.047Z,35.72
2022-07-31T12:47:51.134Z,34.40
2022-07-31T12:50:22.937Z,64.85
2022-07-31T12:52:51.065Z,77.68
2022-07-31T12:55:19.482Z,56.80
2022-07-31T12:57:51.362Z,38.75
2022-07-31T13:00:22.769Z,28.13
2022-07-31T13:02:52.090Z,17.00
2022-07-31T13:05:22.151Z,24.15
2022-07-31T13:07:50.354Z,14.15
2022-07-31T13:10:21.562Z,20.10
2022-07-31T13:12:52.404Z,41.38
2022-07-31T13:15:23.106Z,53.42
2022-07-31T13:17:51.348Z,18.05
2022-07-31T13:20:20.778Z,32.47
2022-07-31T13:22:48.832Z,29.45
2022-07-31T13:25:16.792Z,48.92
2022-07-31T13:27:44.834Z,61.80
2022-07-31T13:30:14.018Z,30.17
2022-07-31T13:32:42.102Z,19.50
2022-07-31T13:35:26.660Z,23.05
2022-07-31T13:37:58.127Z,25.23
2022-07-31T13:40:40.356Z,21.20
2022-07-31T13:43:08.425Z,23.55
2022-07-31T13:45:37.011Z,34.08
2022-07-31T13:48:08.903Z,50.63
2022-07-31T13:50:38.350Z,30.02
2022-07-31T13:53:07.783Z,32.50
2022-07-31T13:55:35.933Z,58.35
2022-07-31T13:58:04.042Z,69.90
2022-07-31T14:00:32.308Z,60.38
2022-07-31T14:03:00.805Z,53.50
2022-07-31T14:05:29.035Z,87.20
2022-07-31T14:08:30.046Z,55.00
2022-07-31T14:10:48.463Z,31.50
2022-07-31T14:13:18.446Z,232.93
2022-07-31T14:15:47.270Z,75.18
2022-07-31T14:18:15.585Z,88.95
2022-07-31T14:20:43.926Z,128.50
2022-07-31T14:23:12.161Z,88.25
2022-07-31T14:25:41.319Z,82.93
2022-07-31T14:28:11.408Z,84.18
2022-07-31T14:30:45.920Z,59.95
2022-07-31T14:33:15.137Z,39.38
2022-07-31T14:35:43.150Z,26.23
2022-07-31T14:38:11.170Z,24.35
2022-07-31T14:40:39.189Z,34.38
2022-07-31T14:43:09.995Z,23.05
2022-07-31T14:45:51.283Z,30.33
2022-07-31T14:48:20.751Z,17.55
2022-07-31T14:50:48.779Z,18.73
2022-07-31T14:53:16.841Z,21.10
2022-07-31T14:55:45.127Z,16.83
2022-07-31T14:58:13.323Z,20.25
2022-07-31T15:00:42.649Z,81.50
2022-07-31T15:03:10.680Z,48.10
2022-07-31T15:06:49.302Z,18.90
2022-07-31T15:08:28.985Z,43.63
2022-07-31T15:10:56.966Z,33.20
2022-07-31T15:13:24.987Z,17.73
2022-07-31T15:15:54.443Z,18.45
2022-07-31T15:18:25.171Z,15.52
2022-07-31T15:20:53.942Z,13.45
2022-07-31T15:23:22.034Z,19.60
2022-07-31T15:25:50.256Z,21.48
2022-07-31T15:28:18.381Z,12.68
2022-07-31T15:30:46.413Z,13.73
2022-07-31T15:33:15.758Z,10.90
2022-07-31T15:35:43.714Z,20.58
2022-07-31T15:38:11.884Z,9.32
2022-07-31T15:40:39.847Z,15.40
2022-07-31T15:43:07.774Z,15.35
2022-07-31T15:45:35.668Z,14.15
2022-07-31T15:48:05.914Z,18.63
2022-07-31T15:50:39.229Z,12.98
2022-07-31T15:53:07.260Z,13.23
2022-07-31T15:55:35.453Z,13.10
2022-07-31T15:58:04.246Z,17.25
2022-07-31T16:00:32.283Z,10.10
2022-07-31T16:03:01.394Z,10.95
2022-07-31T16:05:36.813Z,12.70
2022-07-31T16:08:32.246Z,13.65
2022-07-31T16:10:57.985Z,17.90
2022-07-31T16:13:26.844Z,16.70
2022-07-31T16:15:55.530Z,11.68
2022-07-31T16:18:23.704Z,14.13
2022-07-31T16:20:51.687Z,14.23
2022-07-31T16:23:21.299Z,17.33
2022-07-31T16:25:49.286Z,16.73
2022-07-31T16:28:17.233Z,18.23
2022-07-31T16:30:45.758Z,14.45
2022-07-31T16:33:14.071Z,17.23
2022-07-31T16:35:42.103Z,15.07
2022-07-31T16:38:10.053Z,18.85
2022-07-31T16:40:40.575Z,17.48
2022-07-31T16:43:51.067Z,16.65
2022-07-31T16:45:57.447Z,18.63
2022-07-31T16:48:25.569Z,16.25
2022-07-31T16:50:54.942Z,13.10
2022-07-31T16:54:10.715Z,13.20
2022-07-31T16:56:13.534Z,11.75
2022-07-31T16:58:41.697Z,14.20
2022-07-31T17:01:58.784Z,16.60
2022-07-31T17:04:00.046Z,15.85
2022-07-31T17:06:34.621Z,10.60
2022-07-31T17:09:15.356Z,15.73
2022-07-31T17:11:49.605Z,12.73
2022-07-31T17:14:18.881Z,15.10
2022-07-31T17:16:48.863Z,16.52
2022-07-31T17:19:42.301Z,16.52
2022-07-31T17:22:07.401Z,12.98
2022-07-31T17:24:37.273Z,15.05
2022-07-31T17:27:08.800Z,14.68
2022-07-31T17:29:37.796Z,16.55
2022-07-31T17:32:06.328Z,18.27
2022-07-31T17:34:35.250Z,13.02
2022-07-31T17:37:03.974Z,25.30
2022-07-31T17:39:32.393Z,16.40
2022-07-31T17:42:00.762Z,18.40
2022-07-31T17:44:30.385Z,14.07
2022-07-31T17:46:58.375Z,18.58
2022-07-31T17:49:28.286Z,14.07
2022-07-31T17:51:58.947Z,11.52
2022-07-31T17:54:28.526Z,13.65
2022-07-31T17:56:56.707Z,16.15
2022-07-31T17:59:25.957Z,14.75
2022-07-31T18:02:02.245Z,14.95
2022-07-31T18:04:31.736Z,19.90
2022-07-31T18:07:00.843Z,14.05
2022-07-31T18:09:29.600Z,14.82
2022-07-31T18:11:57.997Z,16.42
2022-07-31T18:14:26.472Z,15.38
2022-07-31T18:16:56.068Z,20.42
2022-07-31T18:19:24.177Z,15.75
2022-07-31T18:21:53.055Z,21.00
2022-07-31T18:24:21.214Z,21.75
2022-07-31T18:26:49.402Z,42.00
2022-07-31T18:29:18.754Z,26.48
2022-07-31T18:31:47.190Z,25.30
2022-07-31T18:34:17.070Z,22.00
2022-07-31T18:36:45.240Z,21.70
2022-07-31T18:39:13.322Z,24.55
2022-07-31T18:41:48.325Z,21.75
2022-07-31T18:46:44.550Z,29.55
2022-07-31T18:51:01.943Z,30.45
2022-07-31T18:52:03.220Z,25.50
2022-07-31T18:54:31.658Z,25.48
2022-07-31T18:56:59.749Z,37.00
2022-07-31T18:59:27.817Z,27.42
2022-07-31T19:01:57.090Z,36.90
2022-07-31T19:04:25.342Z,31.63
2022-07-31T19:06:54.422Z,28.80
2022-07-31T19:09:25.438Z,31.35
2022-07-31T19:11:55.813Z,27.60
2022-07-31T19:14:34.140Z,32.03
2022-07-31T19:17:02.341Z,32.35
2022-07-31T19:19:52.775Z,25.23
2022-07-31T19:22:18.368Z,21.02
2022-07-31T19:24:48.098Z,18.45
2022-07-31T19:27:16.328Z,18.33
2022-07-31T19:29:44.409Z,18.50
2022-07-31T19:32:12.641Z,15.80
2022-07-31T19:34:42.171Z,15.88
2022-07-31T19:37:16.499Z,18.20
2022-07-31T19:39:44.515Z,12.45
2022-07-31T19:42:14.181Z,19.77
2022-07-31T19:44:42.145Z,11.68
2022-07-31T19:47:10.303Z,18.85
2022-07-31T19:49:41.091Z,15.32
2022-07-31T19:52:09.319Z,19.20
2022-07-31T19:54:37.343Z,16.38
2022-07-31T19:57:05.550Z,17.65
2022-07-31T19:59:35.170Z,14.10
2022-07-31T20:02:03.908Z,12.90
2022-07-31T20:04:32.233Z,11.00
2022-07-31T20:07:00.217Z,24.77
2022-07-31T20:09:30.123Z,20.15
2022-07-31T20:11:58.087Z,18.55
2022-07-31T20:14:26.275Z,15.95
2022-07-31T20:16:55.644Z,15.52
2022-07-31T20:19:23.615Z,13.68
2022-07-31T20:21:51.527Z,15.98
2022-07-31T20:24:19.652Z,13.98
2022-07-31T20:26:47.660Z,16.83
2022-07-31T20:29:15.633Z,17.50
2022-07-31T20:31:43.686Z,13.10
2022-07-31T20:34:13.598Z,13.90
2022-07-31T20:36:41.692Z,14.35
2022-07-31T20:39:09.738Z,15.85
2022-07-31T20:41:38.002Z,10.77
2022-07-31T20:44:06.208Z,13.80
2022-07-31T20:46:34.347Z,12.90
2022-07-31T20:49:02.466Z,11.27
2022-07-31T20:51:31.907Z,11.35
2022-07-31T20:53:59.989Z,12.27
2022-07-31T20:56:28.095Z,11.13
2022-07-31T20:58:56.167Z,11.50
2022-07-31T21:01:26.044Z,14.88
2022-07-31T21:03:54.920Z,12.95
2022-07-31T21:06:22.960Z,12.60
2022-07-31T21:08:52.342Z,9.23
2022-07-31T21:11:20.541Z,13.63
2022-07-31T21:13:48.632Z,9.73
2022-07-31T21:16:18.425Z,7.93
2022-07-31T21:18:47.945Z,13.65
2022-07-31T21:21:15.932Z,7.97
2022-07-31T21:23:45.810Z,7.05
2022-07-31T21:26:15.661Z,8.15
2022-07-31T21:28:44.526Z,7.28
2022-07-31T21:31:12.884Z,8.05
2022-07-31T21:33:41.229Z,5.10
2022-07-31T21:36:10.457Z,7.43
2022-07-31T21:38:40.180Z,5.13
2022-07-31T21:41:08.804Z,5.28
2022-07-31T21:43:58.315Z,9.68
2022-07-31T21:46:27.005Z,8.00
2022-07-31T21:48:55.258Z,5.32
2022-07-31T21:51:24.358Z,7.60
2022-07-31T21:53:52.362Z,6.05
2022-07-31T21:56:20.432Z,7.05
2022-07-31T21:58:49.901Z,8.23
2022-07-31T22:01:19.267Z,5.53
2022-07-31T22:03:47.289Z,6.65
2022-07-31T22:06:33.153Z,5.18
2022-07-31T22:09:01.094Z,3.67
2022-07-31T22:11:30.466Z,6.45
2022-07-31T22:13:59.778Z,5.45
2022-07-31T22:16:28.022Z,5.85
2022-07-31T22:18:56.770Z,6.40
2022-07-31T22:21:25.684Z,7.53
2022-07-31T22:23:54.008Z,4.38
2022-07-31T22:26:22.591Z,5.32
2022-07-31T22:28:50.707Z,4.72
2022-07-31T22:31:20.485Z,6.25
2022-07-31T22:33:48.728Z,6.57
2022-07-31T22:36:16.966Z,5.63
2022-07-31T22:38:45.925Z,5.07
2022-07-31T22:41:14.451Z,7.38
2022-07-31T22:44:10.268Z,9.80
2022-07-31T22:46:33.188Z,7.93
2022-07-31T22:49:01.821Z,6.88
2022-07-31T22:51:29.914Z,7.60
2022-07-31T22:53:57.940Z,6.85
2022-07-31T22:56:25.890Z,7.30
2022-07-31T22:58:54.033Z,10.73
2022-07-31T23:01:21.991Z,9.20
2022-07-31T23:03:53.647Z,6.80
2022-07-31T23:06:31.876Z,7.57
2022-07-31T23:09:01.002Z,7.25
2022-07-31T23:11:28.932Z,8.73
2022-07-31T23:13:56.904Z,6.63
2022-07-31T23:16:24.975Z,6.50
2022-07-31T23:18:54.408Z,9.13
2022-07-31T23:21:22.785Z,8.18
2022-07-31T23:23:50.854Z,7.38
2022-07-31T23:26:19.822Z,7.18
2022-07-31T23:28:48.457Z,7.93
2022-07-31T23:31:16.813Z,7.57
2022-07-31T23:33:45.785Z,9.65
2022-07-31T23:36:15.451Z,11.40
2022-07-31T23:38:43.828Z,10.57
2022-07-31T23:41:13.540Z,10.45
2022-07-31T23:43:41.207Z,12.60
2022-07-31T23:46:27.010Z,10.77
2022-07-31T23:48:56.015Z,10.52
2022-07-31T23:51:25.535Z,9.02
2022-07-31T23:53:53.552Z,9.85
2022-07-31T23:56:21.598Z,8.75
2022-07-31T23:58:49.620Z,8.18
